»·PEaware :: UAL2423 KSFO-KSAN

UAL2423 :: KSFO-KSAN

FLIGHT INFORMATION

Flight Status: Arrived
Operator:
United Airlines
More flights by this operator :: More flights under this callsign
Pilot: Anonymous 20536 (20536)
Aircraft: BOEING 737-800
(B738)
More flights by this aircraft type
Origin: KSFO San Francisco Intl
United States
Destination: KSAN San Diego Intl-Lindbergh
United States
More flights between these airports :: More routes between these airports
Route: OFFSH1 MCKEY LAX COMIX2
File this flight plan on PilotEdge
Remarks:
Altitude:
(Current/Filed)
35,000ft
Speed:
(Current/Filed)
380kts
Departed: 28-Sep-18 07:11 PM
Arrived: 28-Sep-18 08:25 PM
Distance/Time
Traveled:
387nm/1:14
Distance/Time
To Go:
Arrived

Flight Plot

Page will automatically refresh every two minutes.

Flight plan parsing failed; only flown route is shown


Map Options




Map Legend


Flown Route
Filed Route
Departure Airport
Arrival Airport
Navaid (VOR, NDB)
Fix

Horizontal Profiles

Position Reports

Time Latitude Longitude Heading Altitude Ground
Speed
28-Sep-18 19:03 37.619187 -122.383519 291 20ft 0kts
28-Sep-18 19:04 37.619187 -122.383519 291 20ft 0kts
28-Sep-18 19:05 37.619187 -122.383519 291 20ft 0kts
28-Sep-18 19:06 37.619187 -122.383519 291 20ft 0kts
28-Sep-18 19:07 37.618830 -122.383065 359 20ft 2kts
28-Sep-18 19:08 37.618607 -122.383150 28 20ft 0kts
28-Sep-18 19:09 37.619174 -122.382756 28 20ft 10kts
28-Sep-18 19:10 37.616091 -122.379986 208 21ft 22kts
28-Sep-18 19:11 37.610448 -122.383766 212 21ft 18kts
28-Sep-18 19:12 37.608171 -122.382968 81 21ft 12kts
28-Sep-18 19:13 37.633132 -122.366003 24 475ft 189kts
28-Sep-18 19:14 37.694663 -122.360670 352 2729ft 265kts
28-Sep-18 19:15 37.710824 -122.426488 211 6050ft 252kts
28-Sep-18 19:16 37.657601 -122.482844 233 9437ft 275kts
28-Sep-18 19:17 37.615378 -122.570230 234 12165ft 307kts
28-Sep-18 19:18 37.570667 -122.662871 231 15267ft 315kts
28-Sep-18 19:19 37.498766 -122.714274 183 18067ft 308kts
28-Sep-18 19:20 37.414251 -122.690404 171 20621ft 318kts
28-Sep-18 19:21 37.327106 -122.667340 172 22872ft 327kts
28-Sep-18 19:22 37.237676 -122.643834 173 24846ft 337kts
28-Sep-18 19:23 37.160519 -122.623601 174 26244ft 348kts
28-Sep-18 19:24 37.065152 -122.598640 175 27874ft 359kts
28-Sep-18 19:25 36.950741 -122.568757 176 29698ft 367kts
28-Sep-18 19:26 36.868754 -122.547381 176 31161ft 365kts
28-Sep-18 19:27 36.770084 -122.521755 176 32837ft 364kts
28-Sep-18 19:28 36.671191 -122.496167 176 34184ft 367kts
28-Sep-18 19:29 36.554020 -122.465975 175 34980ft 385kts
28-Sep-18 19:30 36.465154 -122.440907 166 34971ft 418kts
28-Sep-18 19:31 36.366708 -122.351648 139 34985ft 472kts
28-Sep-18 19:32 36.283374 -122.232961 139 34958ft 472kts
28-Sep-18 19:33 36.197508 -122.110266 138 34956ft 478kts
28-Sep-18 19:34 36.111562 -121.987303 138 34959ft 476kts
28-Sep-18 19:35 36.025921 -121.864606 138 34959ft 477kts
28-Sep-18 19:36 35.940305 -121.741771 137 34959ft 477kts
28-Sep-18 19:37 35.855238 -121.619544 137 34969ft 477kts
28-Sep-18 19:38 35.769093 -121.495588 137 34934ft 476kts
28-Sep-18 19:39 35.682808 -121.371284 136 34934ft 480kts
28-Sep-18 19:40 35.599313 -121.250791 136 34925ft 478kts
28-Sep-18 19:41 35.513106 -121.126265 136 34925ft 479kts
28-Sep-18 19:42 35.432471 -120.996157 132 34944ft 482kts
28-Sep-18 19:43 35.353933 -120.864379 131 34954ft 483kts
28-Sep-18 19:44 35.275342 -120.732005 131 34952ft 483kts
28-Sep-18 19:45 35.196757 -120.599367 130 34954ft 486kts
28-Sep-18 19:46 35.118236 -120.466600 130 34955ft 485kts
28-Sep-18 19:47 35.041154 -120.336009 130 34962ft 485kts
28-Sep-18 19:48 34.963996 -120.205062 130 34961ft 486kts
28-Sep-18 19:49 34.888092 -120.075962 130 34963ft 486kts
28-Sep-18 19:50 34.809606 -119.942243 129 34965ft 486kts
28-Sep-18 19:51 34.733154 -119.811765 129 34963ft 487kts
28-Sep-18 19:52 34.655029 -119.678137 128 34939ft 487kts
28-Sep-18 19:53 34.576744 -119.544004 128 34939ft 488kts
28-Sep-18 19:54 34.498735 -119.410087 128 34939ft 487kts
28-Sep-18 19:55 34.423627 -119.280895 128 34934ft 487kts
28-Sep-18 19:56 34.346040 -119.147214 128 34934ft 486kts
28-Sep-18 19:57 34.268473 -119.013323 128 34943ft 487kts
28-Sep-18 19:58 34.191043 -118.879421 127 34944ft 488kts
28-Sep-18 19:59 34.114647 -118.746982 127 34911ft 461kts
28-Sep-18 20:00 34.044876 -118.625987 128 34945ft 438kts
28-Sep-18 20:01 33.975505 -118.505410 127 34515ft 436kts
28-Sep-18 20:02 33.901368 -118.389105 136 31148ft 443kts
28-Sep-18 20:03 33.823756 -118.290023 136 29025ft 421kts
28-Sep-18 20:04 33.746923 -118.190276 136 27033ft 398kts
28-Sep-18 20:05 33.674209 -118.094693 135 25124ft 378kts
28-Sep-18 20:06 33.605162 -118.004267 135 23395ft 369kts
28-Sep-18 20:07 33.534946 -117.913783 139 21668ft 360kts
28-Sep-18 20:08 33.464797 -117.833460 138 20052ft 341kts
28-Sep-18 20:09 33.393742 -117.755156 140 18484ft 345kts
28-Sep-18 20:10 33.324352 -117.681257 140 16985ft 325kts
28-Sep-18 20:11 33.256581 -117.609107 140 15435ft 334kts
28-Sep-18 20:12 33.188129 -117.536898 140 13554ft 325kts
28-Sep-18 20:13 33.120821 -117.468702 148 11968ft 308kts
28-Sep-18 20:14 33.052074 -117.412411 146 11865ft 277kts
28-Sep-18 20:15 32.990905 -117.361162 146 10898ft 264kts
28-Sep-18 20:16 32.932202 -117.312027 146 9821ft 258kts
28-Sep-18 20:17 32.874337 -117.263833 146 8773ft 253kts
28-Sep-18 20:18 32.817898 -117.214227 132 7642ft 256kts
28-Sep-18 20:19 32.794345 -117.136529 107 7008ft 242kts
28-Sep-18 20:20 32.778034 -117.060511 107 5900ft 235kts
28-Sep-18 20:21 32.754979 -116.990048 137 4725ft 225kts
28-Sep-18 20:22 32.702223 -116.981328 217 3945ft 187kts
28-Sep-18 20:23 32.692272 -117.035192 298 2842ft 185kts
28-Sep-18 20:24 32.709734 -117.091779 285 1692ft 178kts
28-Sep-18 20:25 32.722072 -117.142439 285 746ft 146kts
28-Sep-18 20:26 32.733242 -117.188433 286 25ft 132kts
28-Sep-18 20:27 32.735046 -117.198481 248 25ft 0kts
28-Sep-18 20:28 32.735004 -117.198614 249 25ft 6kts
28-Sep-18 20:29 32.734251 -117.202617 194 25ft 15kts

Navigation Log

Ident Type
Flight plan parsing failed, navigation log unavailable